createdAt,value
2023-03-26T00:01:36.835Z,-11117.09
2023-03-26T00:04:46.739Z,-11136.88
2023-03-26T00:07:53.251Z,-11130.56
2023-03-26T00:11:00.950Z,-11126.63
2023-03-26T00:14:07.643Z,-11138.56
2023-03-26T00:17:13.684Z,-11139.41
2023-03-26T00:20:21.780Z,-11138.44
2023-03-26T00:23:28.521Z,-11136.88
2023-03-26T00:26:35.602Z,-11123.97
2023-03-26T00:29:41.580Z,-11114.69
2023-03-26T00:32:53.618Z,-11107.13
2023-03-26T00:36:04.411Z,-11104.88
2023-03-26T00:39:11.368Z,-11107.41
2023-03-26T00:42:17.841Z,-11117.78
2023-03-26T00:45:24.234Z,-11128.75
2023-03-26T00:48:44.006Z,-11126.78
2023-03-26T00:51:53.076Z,-11125.38
2023-03-26T00:54:59.331Z,-11123.97
2023-03-26T00:58:05.481Z,-11126.78
2023-03-26T01:01:14.835Z,-11116.25
2023-03-26T01:04:28.187Z,-11114.97
2023-03-26T01:07:37.153Z,-11125.94
2023-03-26T01:10:50.928Z,-11124.94
2023-03-26T01:13:59.600Z,-11118.63
2023-03-26T01:17:09.302Z,-11104.44
2023-03-26T01:20:26.715Z,-11102.19
2023-03-26T01:23:41.845Z,-11101.06
2023-03-26T01:27:11.098Z,-11100.94
2023-03-26T01:30:25.451Z,-11102.75
2023-03-26T01:33:38.609Z,-11100.78
2023-03-26T01:36:51.814Z,-11112.16
2023-03-26T01:40:06.219Z,-11109.06
2023-03-26T01:43:21.053Z,-11103.75
2023-03-26T01:46:29.073Z,-11103.19
2023-03-26T01:49:35.645Z,-11109.34
2023-03-26T01:52:41.822Z,-11108.22
2023-03-26T01:56:02.154Z,-11102.62
2023-03-26T01:59:32.183Z,-11102.75
2023-03-26T02:02:47.023Z,-11102.62
2023-03-26T02:05:58.840Z,-11115.25
2023-03-26T02:09:08.099Z,-11111.59
2023-03-26T02:12:15.993Z,-11173.72
2023-03-26T02:15:24.421Z,-11195.34
2023-03-26T02:18:36.892Z,-11216.44
2023-03-26T02:21:43.479Z,-11217.84
2023-03-26T02:24:50.203Z,-11220.66
2023-03-26T02:27:56.694Z,-11217.56
2023-03-26T02:31:04.623Z,-11215.19
2023-03-26T02:34:11.008Z,-11210.25
2023-03-26T02:37:19.202Z,-11217.28
2023-03-26T02:40:25.275Z,-11230.22
2023-03-26T02:43:31.937Z,-11222.22
2023-03-26T02:46:39.221Z,-11226.28
2023-03-26T02:49:45.551Z,-11227.00
2023-03-26T02:52:51.585Z,-11226.56
2023-03-26T02:55:58.192Z,-11214.91
2023-03-26T02:59:04.583Z,-11198.72
2023-03-26T03:02:13.536Z,-11175.09
2023-03-26T03:05:20.424Z,-11163.59
2023-03-26T03:08:29.402Z,-11153.88
2023-03-26T03:11:35.799Z,-11155.44
2023-03-26T03:14:42.368Z,-11151.78
2023-03-26T03:17:50.007Z,-11149.25
2023-03-26T03:20:56.669Z,-11156.28
2023-03-26T03:24:02.621Z,-11151.50
2023-03-26T03:27:09.670Z,-11145.31
2023-03-26T03:30:16.281Z,-11155.72
2023-03-26T03:33:23.962Z,-11169.50
2023-03-26T03:36:30.570Z,-11162.19
2023-03-26T03:39:37.256Z,-11173.16
2023-03-26T03:42:43.332Z,-11175.09
2023-03-26T03:45:49.645Z,-11184.66
2023-03-26T03:48:57.246Z,-11171.75
2023-03-26T03:52:03.448Z,-11164.44
2023-03-26T03:55:11.242Z,-11170.91
2023-03-26T03:58:21.908Z,-11171.31
2023-03-26T04:01:30.866Z,-11168.09
2023-03-26T04:04:39.238Z,-11164.72
2023-03-26T04:07:45.636Z,-11164.28
2023-03-26T04:10:53.440Z,-11188.03
2023-03-26T04:13:59.758Z,-11182.69
2023-03-26T04:17:06.700Z,-11186.91
2023-03-26T04:20:15.898Z,-11187.75
2023-03-26T04:23:23.645Z,-11182.97
2023-03-26T04:26:31.103Z,-11185.38
2023-03-26T04:29:43.315Z,-11181.00
2023-03-26T04:32:49.965Z,-11185.50
2023-03-26T04:36:01.864Z,-11190.44
2023-03-26T04:39:08.238Z,-11194.50
2023-03-26T04:42:14.471Z,-11191.69
2023-03-26T04:45:22.738Z,-11188.47
2023-03-26T04:48:30.510Z,-11191.41
2023-03-26T04:51:42.057Z,-11193.09
2023-03-26T04:54:48.628Z,-11198.16
2023-03-26T04:57:57.839Z,-11201.25
2023-03-26T05:01:09.770Z,-11207.44
2023-03-26T05:04:17.000Z,-11208.72
2023-03-26T05:07:25.028Z,-11221.78
2023-03-26T05:10:31.394Z,-11210.81
2023-03-26T05:13:37.840Z,-11217.84
2023-03-26T05:16:45.223Z,-11220.81
2023-03-26T05:19:52.186Z,-11229.94
2023-03-26T05:22:59.951Z,-11236.56
2023-03-26T05:26:07.824Z,-11248.53
2023-03-26T05:29:20.896Z,-11236.44
2023-03-26T05:32:27.196Z,-11247.41
2023-03-26T05:35:33.508Z,-11244.59
2023-03-26T05:38:41.325Z,-11232.91
2023-03-26T05:41:47.857Z,-11247.25
2023-03-26T05:44:54.268Z,-11256.53
2023-03-26T05:48:00.814Z,-11258.22
2023-03-26T05:51:08.128Z,-11249.09
2023-03-26T05:54:16.008Z,-11248.09
2023-03-26T05:57:24.041Z,-11251.47
2023-03-26T06:00:30.556Z,-11246.56
2023-03-26T06:03:39.265Z,-11253.03
2023-03-26T06:06:46.138Z,-11251.19
2023-03-26T06:09:54.108Z,-11262.03
2023-03-26T06:13:00.274Z,-11261.03
2023-03-26T06:16:08.026Z,-11263.44
2023-03-26T06:19:14.456Z,-11254.44
2023-03-26T06:22:20.699Z,-11262.59
2023-03-26T06:25:28.595Z,-11255.56
2023-03-26T06:28:35.453Z,-11260.06
2023-03-26T06:31:42.488Z,-11265.84
2023-03-26T06:34:49.318Z,-11249.66
2023-03-26T06:37:55.588Z,-11267.25
2023-03-26T06:41:05.602Z,-11268.50
2023-03-26T06:44:12.421Z,-11255.97
2023-03-26T06:47:18.997Z,-11258.50
2023-03-26T06:50:25.415Z,-11265.41
2023-03-26T06:53:31.883Z,-11254.16
2023-03-26T06:56:39.392Z,-11264.00
2023-03-26T06:59:45.980Z,-11279.19
2023-03-26T07:02:52.311Z,-11271.31
2023-03-26T07:05:58.524Z,-11285.69
2023-03-26T07:09:04.982Z,-11289.06
2023-03-26T07:12:12.698Z,-11284.28
2023-03-26T07:15:19.365Z,-11282.56
2023-03-26T07:18:25.914Z,-11279.91
2023-03-26T07:21:33.212Z,-11297.91
2023-03-26T07:24:40.163Z,-11299.34
2023-03-26T07:27:57.296Z,-11297.91
2023-03-26T07:31:14.843Z,-11302.16
2023-03-26T07:34:37.458Z,-11307.06
2023-03-26T07:37:53.692Z,-11326.22
2023-03-26T07:41:09.982Z,-11310.44
2023-03-26T07:44:51.460Z,-11309.75
2023-03-26T07:48:00.292Z,-11309.59
2023-03-26T07:51:07.636Z,-11308.75
2023-03-26T07:54:14.534Z,-11318.34
2023-03-26T07:57:33.248Z,-11312.72
2023-03-26T08:00:46.250Z,-11322.56
2023-03-26T08:04:24.575Z,-11334.53
2023-03-26T08:07:45.228Z,-11339.87
2023-03-26T08:11:08.772Z,-11334.38
2023-03-26T08:14:28.689Z,-11340.88
2023-03-26T08:17:39.977Z,-11343.53
2023-03-26T08:20:50.788Z,-11347.50
2023-03-26T08:24:03.667Z,-11355.78
2023-03-26T08:27:19.396Z,-11350.44
2023-03-26T08:30:27.960Z,-11366.78
2023-03-26T08:33:35.969Z,-11370.03
2023-03-26T08:36:45.049Z,-11369.88
2023-03-26T08:39:51.782Z,-11374.13
2023-03-26T08:43:38.787Z,-11373.28
2023-03-26T08:47:12.436Z,-11370.72
2023-03-26T08:50:49.656Z,-11389.03
2023-03-26T08:54:45.182Z,-11383.97
2023-03-26T08:58:24.401Z,-11398.91
2023-03-26T09:02:11.467Z,-11392.16
2023-03-26T09:05:57.358Z,-11383.69
2023-03-26T09:09:42.445Z,-11396.38
2023-03-26T09:13:20.985Z,-11397.50
2023-03-26T09:17:05.739Z,-11387.63
2023-03-26T09:20:52.340Z,-11385.66
2023-03-26T09:24:34.340Z,-11402.00
2023-03-26T09:27:48.564Z,-11390.47
2023-03-26T09:31:23.564Z,-11392.56
2023-03-26T09:34:33.205Z,-11415.12
2023-03-26T09:37:58.391Z,-11394.13
2023-03-26T09:41:15.156Z,-11415.81
2023-03-26T09:44:51.499Z,-11417.22
2023-03-26T09:48:19.597Z,-11415.25
2023-03-26T09:51:39.279Z,-11408.50
2023-03-26T09:55:03.049Z,-11410.47
2023-03-26T09:58:57.034Z,-11406.38
2023-03-26T10:02:18.562Z,-11410.75
2023-03-26T10:05:51.458Z,-11397.66
2023-03-26T10:09:17.658Z,-11421.59
2023-03-26T10:12:33.567Z,-11423.16
2023-03-26T10:15:57.615Z,-11422.03
2023-03-26T10:19:42.580Z,-11421.31
2023-03-26T10:23:04.967Z,-11429.66
2023-03-26T10:26:28.934Z,-11440.06
2023-03-26T10:30:07.989Z,-11420.34
2023-03-26T10:33:20.559Z,-11437.97
2023-03-26T10:36:33.521Z,-11431.91
2023-03-26T10:39:56.762Z,-11426.25
2023-03-26T10:43:42.678Z,-11428.81
2023-03-26T10:47:16.749Z,-11429.66
2023-03-26T10:50:42.229Z,-11430.22
2023-03-26T10:53:52.302Z,-11426.69
2023-03-26T10:56:59.298Z,-11414.13
2023-03-26T11:00:17.404Z,-11436.84
2023-03-26T11:03:44.256Z,-11435.69
2023-03-26T11:06:58.966Z,-11421.75
2023-03-26T11:10:10.101Z,-11434.72
2023-03-26T11:13:23.237Z,-11444.03
2023-03-26T11:16:42.778Z,-11436.69
2023-03-26T11:19:55.384Z,-11442.34
2023-03-26T11:23:20.013Z,-11430.22
2023-03-26T11:26:39.364Z,-11435.13
2023-03-26T11:29:54.569Z,-11443.59
2023-03-26T11:33:06.972Z,-11437.81
2023-03-26T11:36:17.711Z,-11460.66
2023-03-26T11:39:28.106Z,-11466.00
2023-03-26T11:42:34.601Z,-11467.72
2023-03-26T11:45:45.340Z,-11449.94
2023-03-26T11:48:58.284Z,-11444.88
2023-03-26T11:52:05.323Z,-11451.34
2023-03-26T11:55:13.015Z,-11451.63
2023-03-26T11:58:29.932Z,-11449.09
2023-03-26T12:01:51.102Z,-11451.91
2023-03-26T12:05:18.285Z,-11445.84
2023-03-26T12:08:32.661Z,-11440.78
2023-03-26T12:11:39.260Z,-11459.41
2023-03-26T12:14:46.398Z,-11451.34
2023-03-26T12:17:56.620Z,-11465.59
2023-03-26T12:21:10.340Z,-11456.16
2023-03-26T12:24:29.421Z,-11444.03
2023-03-26T12:27:38.082Z,-11454.47
2023-03-26T12:30:54.369Z,-11438.09
2023-03-26T12:34:14.402Z,-11447.97
2023-03-26T12:37:37.145Z,-11439.50
2023-03-26T12:40:45.198Z,-11441.19
2023-03-26T12:44:56.532Z,-11444.59
2023-03-26T12:47:56.570Z,-11455.44
2023-03-26T12:51:01.488Z,-11453.91
2023-03-26T12:54:37.683Z,-11456.44
2023-03-26T12:57:53.909Z,-11479.97
2023-03-26T13:01:15.859Z,-11468.84
2023-03-26T13:04:36.691Z,-11453.34
2023-03-26T13:08:08.187Z,-11462.06
2023-03-26T13:11:28.476Z,-11442.63
2023-03-26T13:14:46.863Z,-11449.38
2023-03-26T13:18:03.822Z,-11456.44
2023-03-26T13:21:16.713Z,-11453.19
2023-03-26T13:24:34.750Z,-11470.25
2023-03-26T13:27:53.082Z,-11463.91
2023-03-26T13:31:08.640Z,-11452.63
2023-03-26T13:34:25.030Z,-11462.63
2023-03-26T13:37:40.541Z,-11466.59
2023-03-26T13:40:57.992Z,-11463.19
2023-03-26T13:44:17.378Z,-11458.81
2023-03-26T13:47:28.632Z,-11444.16
2023-03-26T13:50:40.570Z,-11468.28
2023-03-26T13:53:51.940Z,-11451.78
2023-03-26T13:57:06.437Z,-11484.34
2023-03-26T14:00:21.625Z,-11468.28
2023-03-26T14:03:38.730Z,-11458.53
2023-03-26T14:06:54.207Z,-11457.69
2023-03-26T14:10:06.346Z,-11469.97
2023-03-26T14:13:20.425Z,-11471.66
2023-03-26T14:16:38.760Z,-11469.25
2023-03-26T14:20:32.813Z,-11478.16
2023-03-26T14:24:12.426Z,-11479.00
2023-03-26T14:27:34.296Z,-11462.34
2023-03-26T14:30:56.677Z,-11459.25
2023-03-26T14:34:25.334Z,-11455.59
2023-03-26T14:38:03.851Z,-11448.53
2023-03-26T14:41:19.339Z,-11470.25
2023-03-26T14:44:48.684Z,-11446.84
2023-03-26T14:48:14.513Z,-11459.25
2023-03-26T14:51:35.276Z,-11441.19
2023-03-26T14:54:45.953Z,-11452.47
2023-03-26T14:58:15.756Z,-11416.53
2023-03-26T15:01:29.517Z,-11407.09
2023-03-26T15:05:07.192Z,-11397.50
2023-03-26T15:08:58.514Z,-11403.56
2023-03-26T15:12:14.579Z,-11403.44
2023-03-26T15:15:58.969Z,-11404.84
2023-03-26T15:19:32.173Z,-11402.88
2023-03-26T15:23:11.563Z,-11388.47
2023-03-26T15:26:51.683Z,-11393.28
2023-03-26T15:30:28.422Z,-11392.72
2023-03-26T15:34:04.826Z,-11385.38
2023-03-26T15:37:49.502Z,-11380.59
2023-03-26T15:41:12.567Z,-11379.75
2023-03-26T15:44:53.211Z,-11374.69
2023-03-26T15:48:37.602Z,-11379.75
2023-03-26T15:51:52.003Z,-11374.13
2023-03-26T15:55:06.325Z,-11376.66
2023-03-26T15:58:19.537Z,-11368.47
2023-03-26T16:01:51.642Z,-11369.47
2023-03-26T16:05:05.247Z,-11365.66
2023-03-26T16:08:24.642Z,-11350.44
2023-03-26T16:11:52.012Z,-11352.00
2023-03-26T16:15:24.748Z,-11344.97
2023-03-26T16:18:37.377Z,-11340.31
2023-03-26T16:21:57.747Z,-11333.56
2023-03-26T16:25:29.113Z,-11332.13
2023-03-26T16:28:37.484Z,-11327.91
2023-03-26T16:32:05.282Z,-11321.56
2023-03-26T16:35:42.821Z,-11316.09
2023-03-26T16:39:12.655Z,-11311.44
2023-03-26T16:42:39.907Z,-11306.22
2023-03-26T16:45:54.355Z,-11297.50
2023-03-26T16:49:10.710Z,-11283.00
2023-03-26T16:52:34.458Z,-11281.03
2023-03-26T16:55:49.404Z,-11275.13
2023-03-26T16:58:59.321Z,-11274.12
2023-03-26T17:02:16.700Z,-11266.69
2023-03-26T17:05:34.399Z,-11265.84
2023-03-26T17:08:49.505Z,-11263.88
2023-03-26T17:12:06.199Z,-11258.22
2023-03-26T17:15:23.392Z,-11257.25
2023-03-26T17:18:38.991Z,-11252.75
2023-03-26T17:21:55.750Z,-11244.03
2023-03-26T17:25:13.492Z,-11246.00
2023-03-26T17:28:28.769Z,-11243.47
2023-03-26T17:31:43.920Z,-11241.63
2023-03-26T17:35:02.479Z,-11233.75
2023-03-26T17:38:45.213Z,-11233.88
2023-03-26T17:42:18.896Z,-11234.31
2023-03-26T17:45:30.600Z,-11238.81
2023-03-26T17:48:45.821Z,-11232.63
2023-03-26T17:51:57.979Z,-11234.19
2023-03-26T17:55:05.596Z,-11226.44
2023-03-26T17:58:24.609Z,-11223.34
2023-03-26T18:01:37.265Z,-11216.44
2023-03-26T18:04:47.850Z,-11213.34
2023-03-26T18:08:40.896Z,-11211.94
2023-03-26T18:12:18.437Z,-11215.31
2023-03-26T18:15:39.382Z,-11209.97
2023-03-26T18:18:50.993Z,-11208.56
2023-03-26T18:21:59.636Z,-11205.34
2023-03-26T18:25:06.573Z,-11194.22
2023-03-26T18:28:15.807Z,-11190.84
2023-03-26T18:31:26.177Z,-11202.25
2023-03-26T18:34:34.705Z,-11200.69
2023-03-26T18:37:44.301Z,-11195.22
2023-03-26T18:40:52.542Z,-11185.22
2023-03-26T18:44:03.793Z,-11188.31
2023-03-26T18:47:13.415Z,-11183.97
2023-03-26T18:50:24.656Z,-11187.91
2023-03-26T18:53:35.804Z,-11184.09
2023-03-26T18:56:43.716Z,-11184.38
2023-03-26T18:59:51.686Z,-11180.44
2023-03-26T19:03:05.405Z,-11177.06
2023-03-26T19:06:15.223Z,-11175.94
2023-03-26T19:09:31.128Z,-11180.72
2023-03-26T19:12:40.232Z,-11177.63
2023-03-26T19:15:47.681Z,-11175.09
2023-03-26T19:18:55.415Z,-11170.91
2023-03-26T19:22:03.817Z,-11174.69
2023-03-26T19:25:19.137Z,-11173.97
2023-03-26T19:28:27.547Z,-11173.97
2023-03-26T19:31:36.127Z,-11173.97
2023-03-26T19:34:46.459Z,-11175.94
2023-03-26T19:37:55.240Z,-11175.53
2023-03-26T19:41:01.592Z,-11173.44
2023-03-26T19:44:19.727Z,-11171.59
2023-03-26T19:47:46.219Z,-11169.91
2023-03-26T19:51:06.284Z,-11167.81
2023-03-26T19:54:17.025Z,-11167.09
2023-03-26T19:57:24.815Z,-11165.41
2023-03-26T20:00:31.980Z,-11165.56
2023-03-26T20:03:41.136Z,-11162.88
2023-03-26T20:06:49.633Z,-11158.25
2023-03-26T20:09:56.298Z,-11157.81
2023-03-26T20:13:02.547Z,-11156.00
2023-03-26T20:16:14.819Z,-11156.56
2023-03-26T20:19:21.423Z,-11157.13
2023-03-26T20:22:29.552Z,-11156.28
2023-03-26T20:25:35.637Z,-11150.38
2023-03-26T20:28:48.268Z,-11153.47
2023-03-26T20:31:58.813Z,-11149.66
2023-03-26T20:35:15.848Z,-11147.00
2023-03-26T20:38:36.724Z,-11143.91
2023-03-26T20:41:47.942Z,-11126.22
2023-03-26T20:44:54.403Z,-11116.66
2023-03-26T20:48:02.922Z,-11127.91
2023-03-26T20:51:13.933Z,-11136.03
2023-03-26T20:54:23.815Z,-11125.94
2023-03-26T20:57:30.097Z,-11132.09
2023-03-26T21:00:37.329Z,-11135.75
2023-03-26T21:03:44.105Z,-11113.72
2023-03-26T21:06:50.841Z,-11089.69
2023-03-26T21:10:02.743Z,-11113.16
2023-03-26T21:13:14.579Z,-11116.94
2023-03-26T21:16:21.661Z,-11110.63
2023-03-26T21:19:29.283Z,-11100.09
2023-03-26T21:22:43.491Z,-11094.75
2023-03-26T21:26:01.695Z,-11100.94
2023-03-26T21:29:08.809Z,-11074.25
2023-03-26T21:32:15.557Z,-11100.94
2023-03-26T21:35:23.026Z,-11106.28
2023-03-26T21:38:32.521Z,-11097.28
2023-03-26T21:41:46.111Z,-11088.28
2023-03-26T21:44:52.900Z,-11086.31
2023-03-26T21:47:59.653Z,-11105.72
2023-03-26T21:51:06.742Z,-11112.16
2023-03-26T21:54:23.632Z,-11112.16
2023-03-26T21:57:43.685Z,-11117.38
2023-03-26T22:01:03.842Z,-11095.44
2023-03-26T22:04:15.689Z,-11096.16
2023-03-26T22:07:27.493Z,-11114.13
2023-03-26T22:10:34.141Z,-11105.44
2023-03-26T22:13:42.307Z,-11096.16
2023-03-26T22:16:48.587Z,-11097.84
2023-03-26T22:19:56.158Z,-11087.88
2023-03-26T22:23:03.406Z,-11095.44
2023-03-26T22:26:09.808Z,-11101.50
2023-03-26T22:29:18.045Z,-11094.47
2023-03-26T22:32:24.491Z,-11082.13
2023-03-26T22:35:38.785Z,-11077.91
2023-03-26T22:38:45.051Z,-11095.88
2023-03-26T22:41:51.561Z,-11085.75
2023-03-26T22:44:59.030Z,-11091.53
2023-03-26T22:48:06.026Z,-11086.88
2023-03-26T22:51:12.933Z,-11079.16
2023-03-26T22:54:19.267Z,-11073.12
2023-03-26T22:57:25.896Z,-11083.38
2023-03-26T23:00:34.964Z,-11092.22
2023-03-26T23:03:41.491Z,-11089.97
2023-03-26T23:06:48.209Z,-11081.00
2023-03-26T23:09:54.752Z,-11083.78
2023-03-26T23:13:01.757Z,-11064.72
2023-03-26T23:16:11.361Z,-11086.75
2023-03-26T23:19:18.441Z,-11077.47
2023-03-26T23:22:24.983Z,-11081.84
2023-03-26T23:25:31.137Z,-11087.72
2023-03-26T23:28:38.328Z,-11064.56
2023-03-26T23:31:46.117Z,-11077.34
2023-03-26T23:34:53.116Z,-11044.78
2023-03-26T23:38:02.315Z,-11065.97
2023-03-26T23:41:09.649Z,-11078.47
2023-03-26T23:44:17.212Z,-11079.59
2023-03-26T23:47:25.377Z,-11089.13
2023-03-26T23:50:31.993Z,-11095.31
2023-03-26T23:53:38.630Z,-11091.81
2023-03-26T23:56:45.544Z,-11087.31
2023-03-26T23:59:52.024Z,-11053.19
